Terminal Aerodrome Forecast
Issued by NWS Charleston, WV

Current Version | Previous Version | Graphics & Text | Print | Product List | Glossary On
Versions: 1 2 3 4 5 6 7 8 9 10 11 12 13 14 15 16 17 18 19 20 21 22 23 24 25 26
457
FTUS41 KRLX 162347
TAFBKW
TAF
KBKW 162347Z 1700/1724 33012G20KT 5SM -RA BR BKN008 OVC012
      TEMPO 1700/1704 6SM -RA BR BKN012 OVC025
     FM170400 36005KT P6SM SCT012 BKN025
     FM170700 02003KT 5SM BR SCT015
     FM170800 06003KT 1 1/2SM BR SCT008
     FM171000 09004KT 6SM BR BKN025
     FM171400 15012G20KT P6SM BKN025
     FM171600 14010G17KT 6SM -RA BR OVC025
     FM171800 13007KT 2SM -RA BR OVC025=

USA.gov is the U.S. government's official web portal to all federal, state and local government web resources and services.